createdAt,value
2018-03-31T00:02:09.759Z,7.88
2018-03-31T00:04:37.497Z,7.95
2018-03-31T00:07:05.229Z,8.04
2018-03-31T00:09:32.981Z,8.04
2018-03-31T00:12:00.699Z,7.96
2018-03-31T00:14:28.516Z,7.79
2018-03-31T00:16:56.531Z,7.91
2018-03-31T00:19:24.280Z,7.90
2018-03-31T00:21:51.996Z,7.84
2018-03-31T00:24:19.765Z,7.76
2018-03-31T00:26:47.490Z,7.44
2018-03-31T00:29:15.257Z,7.19
2018-03-31T00:31:43.004Z,7.12
2018-03-31T00:34:10.756Z,7.29
2018-03-31T00:36:39.475Z,7.50
2018-03-31T00:39:07.238Z,7.62
2018-03-31T00:41:35.718Z,7.46
2018-03-31T00:44:03.540Z,7.53
2018-03-31T00:46:31.281Z,7.43
2018-03-31T00:48:59.046Z,7.39
2018-03-31T00:51:26.797Z,7.45
2018-03-31T00:53:54.509Z,7.21
2018-03-31T00:56:22.270Z,7.13
2018-03-31T00:58:50.100Z,7.20
2018-03-31T01:01:17.849Z,7.13
2018-03-31T01:03:45.866Z,6.99
2018-03-31T01:06:13.625Z,6.97
2018-03-31T01:08:41.356Z,7.00
2018-03-31T01:11:09.104Z,7.02
2018-03-31T01:13:37.010Z,6.99
2018-03-31T01:16:05.065Z,6.84
2018-03-31T01:18:32.783Z,6.80
2018-03-31T01:21:01.064Z,6.78
2018-03-31T01:23:28.823Z,6.83
2018-03-31T01:25:56.624Z,6.75
2018-03-31T01:28:24.353Z,6.76
2018-03-31T01:30:52.085Z,6.66
2018-03-31T01:33:19.829Z,6.66
2018-03-31T01:35:48.221Z,6.55
2018-03-31T01:38:15.958Z,6.46
2018-03-31T01:40:43.684Z,6.61
2018-03-31T01:43:11.465Z,6.57
2018-03-31T01:45:39.181Z,6.61
2018-03-31T01:48:06.949Z,6.38
2018-03-31T01:50:34.688Z,6.44
2018-03-31T01:53:03.068Z,6.28
2018-03-31T01:55:30.992Z,6.21
2018-03-31T01:57:58.736Z,6.33
2018-03-31T02:00:26.481Z,6.21
2018-03-31T02:02:54.247Z,6.23
2018-03-31T02:05:22.482Z,5.99
2018-03-31T02:07:50.186Z,6.17
2018-03-31T02:10:17.920Z,6.07
2018-03-31T02:12:45.700Z,6.16
2018-03-31T02:15:13.445Z,6.22
2018-03-31T02:17:41.205Z,6.07
2018-03-31T02:20:08.993Z,5.99
2018-03-31T02:22:36.731Z,5.97
2018-03-31T02:25:05.747Z,5.95
2018-03-31T02:27:34.413Z,5.89
2018-03-31T02:30:08.648Z,5.71
2018-03-31T02:32:36.436Z,5.73
2018-03-31T02:35:07.875Z,5.62
2018-03-31T02:37:35.959Z,5.56
2018-03-31T02:40:06.741Z,5.47
2018-03-31T02:42:36.181Z,5.51
2018-03-31T02:45:08.036Z,5.63
2018-03-31T02:47:35.787Z,5.73
2018-03-31T02:50:06.652Z,5.62
2018-03-31T02:52:34.420Z,5.72
2018-03-31T02:55:08.558Z,5.70
2018-03-31T02:57:36.294Z,5.67
2018-03-31T03:00:07.060Z,5.57
2018-03-31T03:02:34.822Z,5.50
2018-03-31T03:05:06.394Z,5.39
2018-03-31T03:07:35.874Z,5.23
2018-03-31T03:10:08.669Z,5.29
2018-03-31T03:12:36.805Z,5.43
2018-03-31T03:15:06.270Z,5.25
2018-03-31T03:17:34.616Z,5.12
2018-03-31T03:20:06.224Z,5.13
2018-03-31T03:22:33.989Z,5.07
2018-03-31T03:25:05.086Z,5.23
2018-03-31T03:27:32.938Z,5.22
2018-03-31T03:30:00.685Z,5.19
2018-03-31T03:32:31.264Z,5.07
2018-03-31T03:34:59.012Z,5.02
2018-03-31T03:37:26.915Z,5.09
2018-03-31T03:39:54.632Z,5.07
2018-03-31T03:42:22.420Z,5.24
2018-03-31T03:44:50.307Z,5.22
2018-03-31T03:47:18.330Z,5.26
2018-03-31T03:49:46.085Z,5.09
2018-03-31T03:52:15.014Z,5.07
2018-03-31T03:54:42.811Z,4.99
2018-03-31T03:57:10.568Z,5.01
2018-03-31T03:59:38.328Z,5.10
2018-03-31T04:02:06.089Z,5.40
2018-03-31T04:04:34.129Z,5.39
2018-03-31T04:07:01.890Z,5.32
2018-03-31T04:09:29.642Z,5.36
2018-03-31T04:11:57.417Z,5.43
2018-03-31T04:14:25.164Z,5.22
2018-03-31T04:16:52.909Z,5.24
2018-03-31T04:19:20.688Z,5.27
2018-03-31T04:21:48.418Z,5.32
2018-03-31T04:24:17.294Z,5.43
2018-03-31T04:26:45.005Z,5.45
2018-03-31T04:29:12.822Z,4.98
2018-03-31T04:31:40.804Z,5.04
2018-03-31T04:34:08.529Z,4.78
2018-03-31T04:36:36.267Z,5.01
2018-03-31T04:39:04.015Z,5.14
2018-03-31T04:41:31.956Z,4.87
2018-03-31T04:43:59.722Z,4.89
2018-03-31T04:46:27.490Z,4.78
2018-03-31T04:48:55.221Z,4.64
2018-03-31T04:51:23.031Z,4.65
2018-03-31T04:53:50.769Z,4.73
2018-03-31T04:56:18.527Z,4.90
2018-03-31T04:58:46.710Z,4.80
2018-03-31T05:01:14.460Z,4.64
2018-03-31T05:03:42.223Z,4.53
2018-03-31T05:06:09.985Z,4.49
2018-03-31T05:08:37.730Z,4.43
2018-03-31T05:11:05.694Z,4.46
2018-03-31T05:13:33.416Z,4.56
2018-03-31T05:16:01.189Z,4.39
2018-03-31T05:18:29.204Z,4.38
2018-03-31T05:20:56.932Z,4.27
2018-03-31T05:23:24.760Z,4.37
2018-03-31T05:25:52.821Z,4.43
2018-03-31T05:28:20.901Z,4.48
2018-03-31T05:30:48.644Z,4.47
2018-03-31T05:33:16.407Z,4.44
2018-03-31T05:35:44.136Z,4.52
2018-03-31T05:38:11.881Z,4.34
2018-03-31T05:40:39.621Z,4.33
2018-03-31T05:43:07.444Z,4.39
2018-03-31T05:45:35.173Z,4.43
2018-03-31T05:48:02.918Z,4.48
2018-03-31T05:50:30.652Z,4.67
2018-03-31T05:52:58.401Z,4.57
2018-03-31T05:55:26.143Z,4.77
2018-03-31T05:57:54.370Z,5.03
2018-03-31T06:00:22.050Z,4.84
2018-03-31T06:02:49.792Z,4.74
2018-03-31T06:05:17.689Z,4.80
2018-03-31T06:07:45.430Z,5.01
2018-03-31T06:10:13.537Z,5.10
2018-03-31T06:12:41.232Z,5.45
2018-03-31T06:15:08.996Z,5.80
2018-03-31T06:17:37.614Z,5.83
2018-03-31T06:20:05.585Z,5.86
2018-03-31T06:22:33.312Z,5.91
2018-03-31T06:25:04.307Z,6.16
2018-03-31T06:27:32.040Z,6.44
2018-03-31T06:29:59.803Z,6.64
2018-03-31T06:32:32.955Z,7.24
2018-03-31T06:37:33.204Z,7.51
2018-03-31T06:42:33.223Z,7.65
2018-03-31T06:47:34.958Z,6.85
2018-03-31T06:50:06.260Z,6.55
2018-03-31T06:52:33.989Z,6.62
2018-03-31T06:55:06.578Z,6.98
2018-03-31T06:57:34.597Z,7.83
2018-03-31T07:00:06.162Z,7.96
2018-03-31T07:02:33.910Z,8.46
2018-03-31T07:05:08.709Z,8.60
2018-03-31T07:07:36.422Z,8.62
2018-03-31T07:10:05.685Z,9.06
2018-03-31T07:12:33.459Z,10.02
2018-03-31T07:15:04.399Z,10.40
2018-03-31T07:17:32.163Z,10.87
2018-03-31T07:20:00.160Z,11.19
2018-03-31T07:22:30.728Z,11.53
2018-03-31T07:24:58.561Z,11.75
2018-03-31T07:27:26.404Z,11.87
2018-03-31T07:29:54.153Z,11.80
2018-03-31T07:32:21.925Z,11.18
2018-03-31T07:34:49.636Z,11.69
2018-03-31T07:37:17.557Z,11.97
2018-03-31T07:39:45.260Z,12.02
2018-03-31T07:42:12.989Z,11.90
2018-03-31T07:44:40.723Z,12.13
2018-03-31T07:47:08.482Z,12.05
2018-03-31T07:49:36.231Z,13.58
2018-03-31T07:52:04.014Z,15.00
2018-03-31T07:54:31.709Z,15.46
2018-03-31T07:56:59.483Z,15.76
2018-03-31T07:59:27.240Z,15.74
2018-03-31T08:01:54.969Z,15.78
2018-03-31T08:04:22.721Z,15.28
2018-03-31T08:06:50.450Z,15.75
2018-03-31T08:09:18.194Z,16.22
2018-03-31T08:11:45.948Z,16.61
2018-03-31T08:14:13.705Z,16.29
2018-03-31T08:16:41.449Z,16.10
2018-03-31T08:19:09.515Z,15.92
2018-03-31T08:21:37.247Z,15.90
2018-03-31T08:24:05.064Z,16.07
2018-03-31T08:26:32.810Z,16.42
2018-03-31T08:29:00.576Z,16.06
2018-03-31T08:31:28.305Z,16.15
2018-03-31T08:33:56.043Z,17.01
2018-03-31T08:36:23.794Z,17.06
2018-03-31T08:38:51.547Z,17.75
2018-03-31T08:41:19.322Z,17.54
2018-03-31T08:43:47.472Z,17.93
2018-03-31T08:46:15.218Z,18.17
2018-03-31T08:48:43.060Z,17.94
2018-03-31T08:51:10.962Z,17.90
2018-03-31T08:53:38.708Z,17.54
2018-03-31T08:56:06.608Z,18.12
2018-03-31T08:58:35.006Z,17.93
2018-03-31T09:01:02.785Z,18.26
2018-03-31T09:03:30.511Z,18.04
2018-03-31T09:05:58.269Z,18.56
2018-03-31T09:08:25.997Z,16.84
2018-03-31T09:10:54.104Z,14.94
2018-03-31T09:13:22.291Z,16.37
2018-03-31T09:15:50.033Z,17.49
2018-03-31T09:18:18.543Z,17.42
2018-03-31T09:20:46.466Z,18.07
2018-03-31T09:23:14.245Z,18.10
2018-03-31T09:25:41.968Z,17.93
2018-03-31T09:28:09.713Z,17.53
2018-03-31T09:30:37.470Z,17.19
2018-03-31T09:33:05.306Z,16.77
2018-03-31T09:35:33.035Z,18.21
2018-03-31T09:38:00.785Z,19.67
2018-03-31T09:40:28.524Z,18.02
2018-03-31T09:42:56.261Z,19.72
2018-03-31T09:45:23.988Z,18.51
2018-03-31T09:47:51.740Z,17.39
2018-03-31T09:50:19.467Z,18.59
2018-03-31T09:52:47.269Z,18.72
2018-03-31T09:55:15.009Z,18.95
2018-03-31T09:57:43.066Z,19.71
2018-03-31T10:00:10.779Z,17.77
2018-03-31T10:02:38.509Z,15.44
2018-03-31T10:05:06.278Z,15.42
2018-03-31T10:07:34.003Z,17.30
2018-03-31T10:10:08.141Z,18.35
2018-03-31T10:12:35.854Z,18.75
2018-03-31T10:15:05.208Z,19.53
2018-03-31T10:17:33.187Z,17.67
2018-03-31T10:20:04.874Z,19.26
2018-03-31T10:22:32.647Z,20.31
2018-03-31T10:25:04.425Z,19.94
2018-03-31T10:27:32.185Z,20.35
2018-03-31T10:29:59.914Z,20.38
2018-03-31T10:32:30.924Z,19.50
2018-03-31T10:34:58.896Z,20.82
2018-03-31T10:37:26.843Z,20.88
2018-03-31T10:39:54.636Z,19.80
2018-03-31T10:42:22.583Z,17.72
2018-03-31T10:44:50.536Z,19.96
2018-03-31T10:47:18.293Z,18.11
2018-03-31T10:49:46.312Z,17.29
2018-03-31T10:52:14.056Z,16.13
2018-03-31T10:54:41.781Z,16.55
2018-03-31T10:57:09.804Z,18.07
2018-03-31T10:59:38.165Z,18.08
2018-03-31T11:02:05.932Z,17.85
2018-03-31T11:04:33.793Z,19.43
2018-03-31T11:07:01.571Z,19.62
2018-03-31T11:09:29.306Z,20.49
2018-03-31T11:11:57.140Z,19.29
2018-03-31T11:14:25.309Z,18.27
2018-03-31T11:16:53.072Z,20.71
2018-03-31T11:19:21.113Z,19.96
2018-03-31T11:21:49.186Z,21.68
2018-03-31T11:24:16.912Z,21.03
2018-03-31T11:26:44.649Z,20.91
2018-03-31T11:29:12.473Z,20.15
2018-03-31T11:31:40.519Z,19.20
2018-03-31T11:34:08.258Z,16.73
2018-03-31T11:36:36.026Z,16.09
2018-03-31T11:39:03.757Z,15.25
2018-03-31T11:41:31.496Z,15.45
2018-03-31T11:43:59.265Z,16.38
2018-03-31T11:46:26.987Z,16.29
2018-03-31T11:48:54.992Z,16.27
2018-03-31T11:51:23.591Z,16.72
2018-03-31T11:53:51.345Z,17.21
2018-03-31T11:56:19.081Z,17.73
2018-03-31T11:58:46.828Z,18.50
2018-03-31T12:01:14.586Z,20.23
2018-03-31T12:03:42.494Z,20.17
2018-03-31T12:06:10.236Z,22.20
2018-03-31T12:08:38.304Z,19.94
2018-03-31T12:11:06.059Z,19.31
2018-03-31T12:13:33.814Z,19.47
2018-03-31T12:16:01.546Z,19.33
2018-03-31T12:18:29.277Z,21.00
2018-03-31T12:20:57.892Z,19.66
2018-03-31T12:23:26.049Z,18.39
2018-03-31T12:25:53.963Z,18.03
2018-03-31T12:28:22.160Z,17.02
2018-03-31T12:30:50.653Z,16.93
2018-03-31T12:33:18.558Z,17.41
2018-03-31T12:35:46.282Z,17.68
2018-03-31T12:38:14.315Z,18.67
2018-03-31T12:40:42.320Z,18.48
2018-03-31T12:43:10.277Z,16.82
2018-03-31T12:45:38.015Z,16.41
2018-03-31T12:48:05.888Z,16.48
2018-03-31T12:50:33.626Z,15.98
2018-03-31T12:53:01.745Z,16.61
2018-03-31T12:55:29.449Z,16.77
2018-03-31T12:57:57.184Z,16.33
2018-03-31T13:00:24.933Z,15.87
2018-03-31T13:02:53.326Z,15.32
2018-03-31T13:05:21.057Z,15.71
2018-03-31T13:07:49.468Z,16.19
2018-03-31T13:10:17.210Z,16.57
2018-03-31T13:12:44.984Z,16.83
2018-03-31T13:15:12.723Z,16.70
2018-03-31T13:17:40.477Z,17.17
2018-03-31T13:20:08.224Z,17.18
2018-03-31T13:22:35.981Z,16.68
2018-03-31T13:25:06.213Z,16.53
2018-03-31T13:27:33.939Z,16.64
2018-03-31T13:30:08.060Z,17.17
2018-03-31T13:32:36.430Z,17.32
2018-03-31T13:35:05.559Z,16.74
2018-03-31T13:37:33.237Z,16.98
2018-03-31T13:42:35.351Z,16.90
2018-03-31T13:45:06.659Z,17.10
2018-03-31T13:47:34.386Z,17.07
2018-03-31T13:50:05.370Z,16.91
2018-03-31T13:52:33.025Z,16.62
2018-03-31T13:57:35.086Z,16.19
2018-03-31T14:00:06.426Z,16.62
2018-03-31T14:02:34.168Z,16.48
2018-03-31T14:05:04.811Z,16.08
2018-03-31T14:07:32.553Z,16.28
2018-03-31T14:10:00.298Z,15.87
2018-03-31T14:12:34.554Z,15.65
2018-03-31T14:15:05.632Z,15.18
2018-03-31T14:17:33.616Z,14.77
2018-03-31T14:22:34.181Z,14.71
2018-03-31T14:25:08.523Z,14.56
2018-03-31T14:27:37.098Z,14.88
2018-03-31T14:30:05.897Z,14.80
2018-03-31T14:32:33.629Z,14.62
2018-03-31T14:35:04.446Z,14.84
2018-03-31T14:37:32.206Z,14.74
2018-03-31T14:40:00.195Z,14.60
2018-03-31T14:42:31.229Z,14.72
2018-03-31T14:44:58.954Z,14.72
2018-03-31T14:47:26.710Z,15.28
2018-03-31T14:49:54.449Z,15.98
2018-03-31T14:52:22.192Z,15.67
2018-03-31T14:54:49.954Z,15.96
2018-03-31T14:57:17.973Z,16.09
2018-03-31T14:59:45.896Z,16.28
2018-03-31T15:02:13.919Z,16.09
2018-03-31T15:04:41.798Z,15.98
2018-03-31T15:07:09.565Z,15.35
2018-03-31T15:09:37.309Z,14.68
2018-03-31T15:12:05.677Z,14.81
2018-03-31T15:14:33.637Z,14.81
2018-03-31T15:17:01.379Z,14.63
2018-03-31T15:19:29.137Z,14.69
2018-03-31T15:21:56.910Z,15.20
2018-03-31T15:24:25.276Z,14.91
2018-03-31T15:26:53.006Z,15.00
2018-03-31T15:29:20.739Z,14.72
2018-03-31T15:31:48.504Z,14.71
2018-03-31T15:34:17.154Z,14.58
2018-03-31T15:36:46.040Z,14.44
2018-03-31T15:39:13.802Z,14.51
2018-03-31T15:41:41.540Z,14.68
2018-03-31T15:44:09.309Z,14.47
2018-03-31T15:46:37.067Z,14.62
2018-03-31T15:49:04.831Z,14.14
2018-03-31T15:51:32.576Z,13.97
2018-03-31T15:54:00.324Z,14.11
2018-03-31T15:56:28.559Z,13.96
2018-03-31T15:58:56.426Z,13.91
2018-03-31T16:01:24.172Z,13.98
2018-03-31T16:03:52.182Z,14.01
2018-03-31T16:06:19.933Z,13.88
2018-03-31T16:08:47.685Z,13.96
2018-03-31T16:11:15.428Z,14.33
2018-03-31T16:13:43.148Z,14.59
2018-03-31T16:16:11.139Z,14.78
2018-03-31T16:18:38.852Z,14.43
2018-03-31T16:21:06.718Z,14.10
2018-03-31T16:23:34.436Z,14.06
2018-03-31T16:26:02.219Z,13.93
2018-03-31T16:28:29.945Z,13.81
2018-03-31T16:30:57.729Z,13.64
2018-03-31T16:33:25.464Z,13.76
2018-03-31T16:35:53.513Z,13.61
2018-03-31T16:38:21.205Z,13.60
2018-03-31T16:40:48.964Z,13.51
2018-03-31T16:43:16.720Z,13.48
2018-03-31T16:45:44.696Z,13.63
2018-03-31T16:48:12.481Z,13.47
2018-03-31T16:50:40.215Z,13.38
2018-03-31T16:53:07.956Z,13.31
2018-03-31T16:55:35.720Z,13.26
2018-03-31T16:58:03.450Z,13.22
2018-03-31T17:00:31.182Z,13.25
2018-03-31T17:02:58.938Z,13.26
2018-03-31T17:05:26.705Z,13.30
2018-03-31T17:07:54.462Z,13.26
2018-03-31T17:10:22.212Z,13.29
2018-03-31T17:12:49.989Z,13.32
2018-03-31T17:15:17.725Z,13.27
2018-03-31T17:17:45.479Z,13.29
2018-03-31T17:20:13.227Z,13.32
2018-03-31T17:22:40.971Z,13.30
2018-03-31T17:25:08.721Z,13.32
2018-03-31T17:27:36.476Z,13.31
2018-03-31T17:30:05.946Z,13.30
2018-03-31T17:32:33.669Z,13.30
2018-03-31T17:35:06.482Z,13.25
2018-03-31T17:37:34.249Z,13.16
2018-03-31T17:40:04.995Z,13.16
2018-03-31T17:42:33.270Z,13.24
2018-03-31T17:45:04.622Z,13.40
2018-03-31T17:47:32.357Z,13.22
2018-03-31T17:50:00.126Z,13.10
2018-03-31T17:52:34.505Z,13.07
2018-03-31T17:55:08.634Z,13.02
2018-03-31T17:57:36.390Z,12.80
2018-03-31T18:00:05.992Z,12.80
2018-03-31T18:02:33.800Z,12.73
2018-03-31T18:05:05.781Z,13.03
2018-03-31T18:07:33.554Z,12.89
2018-03-31T18:12:33.513Z,12.93
2018-03-31T18:15:06.110Z,12.72
2018-03-31T18:17:33.962Z,12.69
2018-03-31T18:22:34.605Z,12.55
2018-03-31T18:25:06.322Z,12.67
2018-03-31T18:27:34.071Z,12.57
2018-03-31T18:30:05.452Z,12.51
2018-03-31T18:32:33.210Z,12.39
2018-03-31T18:35:02.487Z,12.21
2018-03-31T18:37:31.808Z,12.06
2018-03-31T18:39:59.554Z,12.10
2018-03-31T18:42:27.301Z,12.04
2018-03-31T18:44:55.030Z,12.00
2018-03-31T18:47:22.838Z,11.92
2018-03-31T18:49:50.595Z,11.84
2018-03-31T18:52:18.342Z,11.77
2018-03-31T18:54:46.240Z,11.66
2018-03-31T18:57:13.975Z,11.75
2018-03-31T18:59:41.741Z,11.68
2018-03-31T19:02:09.502Z,11.77
2018-03-31T19:04:37.244Z,11.91
2018-03-31T19:07:04.989Z,11.83
2018-03-31T19:09:32.968Z,11.89
2018-03-31T19:12:00.704Z,11.90
2018-03-31T19:14:28.860Z,11.84
2018-03-31T19:17:02.060Z,11.86
2018-03-31T19:19:31.400Z,11.80
2018-03-31T19:21:59.105Z,11.72
2018-03-31T19:24:26.873Z,11.68
2018-03-31T19:26:54.634Z,11.74
2018-03-31T19:29:22.393Z,11.76
2018-03-31T19:31:50.257Z,11.70
2018-03-31T19:34:18.055Z,11.82
2018-03-31T19:36:46.358Z,11.76
2018-03-31T19:39:20.088Z,11.80
2018-03-31T19:41:48.158Z,11.60
2018-03-31T19:44:16.069Z,11.68
2018-03-31T19:46:43.839Z,11.82
2018-03-31T19:49:11.583Z,11.81
2018-03-31T19:51:39.350Z,11.95
2018-03-31T19:54:07.073Z,11.92
2018-03-31T19:56:34.813Z,11.99
2018-03-31T19:59:02.609Z,12.07
2018-03-31T20:01:30.330Z,12.04
2018-03-31T20:03:58.458Z,11.68
2018-03-31T20:06:26.174Z,11.15
2018-03-31T20:08:53.948Z,11.07
2018-03-31T20:11:21.831Z,11.02
2018-03-31T20:13:49.591Z,11.08
2018-03-31T20:16:17.424Z,10.71
2018-03-31T20:18:46.077Z,10.47
2018-03-31T20:21:14.437Z,10.42
2018-03-31T20:23:42.158Z,10.33
2018-03-31T20:26:09.932Z,10.33
2018-03-31T20:28:37.662Z,10.33
2018-03-31T20:31:05.406Z,10.41
2018-03-31T20:33:33.399Z,10.57
2018-03-31T20:36:01.154Z,10.56
2018-03-31T20:38:28.907Z,10.31
2018-03-31T20:40:56.662Z,10.41
2018-03-31T20:43:24.413Z,9.98
2018-03-31T20:45:52.152Z,9.71
2018-03-31T20:48:20.195Z,9.71
2018-03-31T20:50:47.920Z,9.64
2018-03-31T20:53:15.686Z,9.40
2018-03-31T20:55:43.413Z,9.43
2018-03-31T20:58:11.210Z,9.36
2018-03-31T21:00:38.949Z,9.41
2018-03-31T21:03:06.681Z,9.52
2018-03-31T21:05:34.683Z,9.26
2018-03-31T21:08:02.435Z,9.24
2018-03-31T21:10:30.658Z,9.54
2018-03-31T21:12:58.450Z,9.41
2018-03-31T21:15:26.176Z,9.39
2018-03-31T21:17:53.969Z,9.45
2018-03-31T21:20:21.703Z,9.45
2018-03-31T21:22:49.532Z,9.36
2018-03-31T21:25:17.318Z,9.59
2018-03-31T21:27:45.202Z,9.44
2018-03-31T21:30:12.941Z,9.48
2018-03-31T21:32:40.766Z,9.47
2018-03-31T21:35:08.530Z,9.25
2018-03-31T21:37:36.250Z,9.28
2018-03-31T21:40:07.051Z,9.33
2018-03-31T21:42:34.817Z,9.32
2018-03-31T21:45:06.540Z,9.25
2018-03-31T21:47:34.268Z,9.16
2018-03-31T21:50:05.569Z,9.21
2018-03-31T21:52:33.322Z,9.24
2018-03-31T21:55:01.043Z,9.22
2018-03-31T21:57:32.738Z,9.30
2018-03-31T22:00:00.460Z,9.10
2018-03-31T22:02:31.281Z,9.36
2018-03-31T22:04:59.033Z,9.23
2018-03-31T22:07:26.767Z,9.31
2018-03-31T22:09:54.508Z,9.07
2018-03-31T22:12:22.229Z,8.99
2018-03-31T22:14:55.581Z,9.04
2018-03-31T22:17:23.321Z,8.94
2018-03-31T22:19:51.135Z,8.93
2018-03-31T22:22:18.904Z,8.94
2018-03-31T22:24:46.638Z,8.93
2018-03-31T22:27:14.396Z,8.93
2018-03-31T22:29:42.122Z,8.92
2018-03-31T22:32:09.887Z,8.90
2018-03-31T22:34:37.612Z,8.93
2018-03-31T22:37:05.342Z,8.98
2018-03-31T22:39:33.129Z,8.83
2018-03-31T22:42:01.105Z,8.87
2018-03-31T22:44:28.875Z,8.87
2018-03-31T22:46:56.599Z,8.88
2018-03-31T22:49:24.332Z,8.97
2018-03-31T22:51:52.092Z,8.96
2018-03-31T22:54:19.832Z,8.78
2018-03-31T22:56:47.586Z,8.83
2018-03-31T22:59:15.308Z,8.79
2018-03-31T23:01:43.109Z,9.05
2018-03-31T23:04:10.829Z,8.83
2018-03-31T23:06:38.632Z,8.68
2018-03-31T23:09:06.373Z,8.62
2018-03-31T23:11:34.108Z,8.69
2018-03-31T23:14:01.843Z,8.71
2018-03-31T23:16:29.603Z,8.91
2018-03-31T23:18:57.347Z,9.11
2018-03-31T23:21:25.094Z,9.05
2018-03-31T23:23:52.808Z,9.08
2018-03-31T23:26:20.548Z,9.06
2018-03-31T23:28:48.333Z,8.74
2018-03-31T23:31:16.384Z,8.88
2018-03-31T23:33:44.316Z,8.95
2018-03-31T23:36:12.026Z,8.90
2018-03-31T23:38:39.750Z,8.86
2018-03-31T23:41:07.825Z,8.60
2018-03-31T23:43:35.576Z,8.74
2018-03-31T23:46:03.320Z,8.94
2018-03-31T23:48:31.197Z,8.98
2018-03-31T23:50:59.081Z,8.87
2018-03-31T23:53:26.871Z,8.84
2018-03-31T23:55:54.792Z,8.99
2018-03-31T23:58:22.513Z,9.06
